Time;durP1;ratioP1;P1;durP2;ratioP2;P2;SDS_P1;SDS_P2;PMS_P1;PMS_P2;Temp;Humidity;BMP_temperature;BMP_pressure;BME280_temperature;BME280_humidity;BME280_pressure;Samples;Min_cycle;Max_cycle;Signal;HPM_P1;HPM_P2
2022/08/13 00:09:56;;;;;;;9.6;11.9;;;;;;;17.7;100;98700;;;;
2022/08/13 00:19:56;;;;;;;9.6;11.9;;;;;;;17.9;100;98690;;;;
2022/08/13 00:29:56;;;;;;;12.1;15.8;;;;;;;17.9;100;98680;;;;
2022/08/13 00:40:58;;;;;;;12.1;15.8;;;;;;;17.8;100;98680;;;;
2022/08/13 00:50:56;;;;;;;12.1;15.8;;;;;;;17.7;100;98670;;;;
2022/08/13 01:00:56;;;;;;;13;17.2;;;;;;;17.7;100;98660;;;;
2022/08/13 01:11:56;;;;;;;13;17.2;;;;;;;17.6;100;98650;;;;
2022/08/13 01:21:57;;;;;;;13;17.2;;;;;;;17.7;100;98640;;;;
2022/08/13 01:32:56;;;;;;;15.2;19.6;;;;;;;17.6;100;98630;;;;
2022/08/13 01:44:00;;;;;;;15.2;19.6;;;;;;;17.7;100;98640;;;;
2022/08/13 01:53:58;;;;;;;15.2;19.6;;;;;;;17.4;100;98640;;;;
2022/08/13 02:04:56;;;;;;;15.7;20.9;;;;;;;17.7;100;98630;;;;
2022/08/13 02:14:58;;;;;;;15.7;20.9;;;;;;;17.5;100;98620;;;;
2022/08/13 02:25:56;;;;;;;15.7;20.9;;;;;;;17.6;100;98610;;;;
2022/08/13 02:35:57;;;;;;;15.8;19.6;;;;;;;17.6;100;98610;;;;
2022/08/13 02:46:56;;;;;;;15.8;19.6;;;;;;;17.7;100;98620;;;;
2022/08/13 02:57:56;;;;;;;15.8;19.6;;;;;;;17.8;100;98620;;;;
2022/08/13 03:07:56;;;;;;;17.1;20.3;;;;;;;17.7;100;98620;;;;
2022/08/13 03:18:57;;;;;;;17.1;20.3;;;;;;;17.5;100;98600;;;;
2022/08/13 03:29:56;;;;;;;18;22;;;;;;;17.6;100;98580;;;;
2022/08/13 03:41:11;;;;;;;18;22;;;;;;;17.7;100;98580;;;;
2022/08/13 03:51:56;;;;;;;18;22;;;;;;;17.9;100;98600;;;;
2022/08/13 04:01:56;;;;;;;21.1;28.7;;;;;;;18.1;100;98600;;;;
2022/08/13 04:11:56;;;;;;;21.1;28.7;;;;;;;18;100;98600;;;;
2022/08/13 04:21:56;;;;;;;21.1;28.7;;;;;;;18;100;98600;;;;
2022/08/13 04:32:58;;;;;;;22.1;26.6;;;;;;;18;100;98600;;;;
2022/08/13 04:43:56;;;;;;;22.1;26.6;;;;;;;18.2;100;98600;;;;
2022/08/13 04:53:56;;;;;;;22.1;26.6;;;;;;;18;100;98590;;;;
2022/08/13 05:04:58;;;;;;;22.1;31.2;;;;;;;18.2;100;98600;;;;
2022/08/13 05:14:56;;;;;;;22.1;31.2;;;;;;;18.4;100;98600;;;;
2022/08/13 05:24:56;;;;;;;22.1;31.2;;;;;;;18.6;100;98600;;;;
2022/08/13 05:34:59;;;;;;;21.5;28.6;;;;;;;18.6;100;98590;;;;
2022/08/13 05:44:56;;;;;;;21.5;28.6;;;;;;;18.7;100;98590;;;;
2022/08/13 05:54:57;;;;;;;21.5;28.6;;;;;;;18.8;100;98590;;;;
2022/08/13 06:05:56;;;;;;;22;29.9;;;;;;;18.9;100;98590;;;;
2022/08/13 06:16:56;;;;;;;22;29.9;;;;;;;18.9;100;98580;;;;
2022/08/13 06:28:00;;;;;;;22;29.9;;;;;;;18.9;100;98580;;;;
2022/08/13 06:37:56;;;;;;;19.5;24.2;;;;;;;18.9;100;98590;;;;
2022/08/13 06:48:57;;;;;;;19.5;24.2;;;;;;;19.2;100;98580;;;;
2022/08/13 06:59:57;;;;;;;18.8;23.2;;;;;;;19.2;100;98580;;;;
2022/08/13 07:09:56;;;;;;;18.8;23.2;;;;;;;19.3;100;98580;;;;
2022/08/13 07:20:56;;;;;;;18.8;23.2;;;;;;;19.2;100;98580;;;;
2022/08/13 07:30:56;;;;;;;18.5;22.7;;;;;;;19.3;100;98580;;;;
2022/08/13 07:41:56;;;;;;;18.5;22.7;;;;;;;19.4;100;98590;;;;
2022/08/13 07:51:56;;;;;;;18.5;22.7;;;;;;;19.3;100;98580;;;;
2022/08/13 08:02:56;;;;;;;17.3;21.5;;;;;;;19.8;100;98590;;;;
2022/08/13 08:12:59;;;;;;;17.3;21.5;;;;;;;19.6;100;98580;;;;
2022/08/13 08:23:57;;;;;;;17.3;21.5;;;;;;;19.5;100;98570;;;;
2022/08/13 08:33:57;;;;;;;12;16;;;;;;;19.5;100;98560;;;;
2022/08/13 08:44:57;;;;;;;12;16;;;;;;;19.7;100;98550;;;;
2022/08/13 08:55:56;;;;;;;12;16;;;;;;;19.8;100;98560;;;;
2022/08/13 09:06:57;;;;;;;7.7;10.7;;;;;;;19.4;100;98550;;;;
2022/08/13 09:17:56;;;;;;;7.7;10.7;;;;;;;20.4;100;98540;;;;
2022/08/13 09:28:57;;;;;;;7.7;10.7;;;;;;;21.1;100;98530;;;;
2022/08/13 09:38:56;;;;;;;7.6;10.7;;;;;;;21.6;100;98520;;;;
2022/08/13 09:49:56;;;;;;;7.6;10.7;;;;;;;22.1;100;98520;;;;
2022/08/13 10:00:57;;;;;;;8.3;11.5;;;;;;;22;100;98510;;;;
2022/08/13 10:10:56;;;;;;;8.3;11.5;;;;;;;22;100;98510;;;;
2022/08/13 10:21:56;;;;;;;8.3;11.5;;;;;;;21.5;100;98510;;;;
2022/08/13 10:31:56;;;;;;;8;12.3;;;;;;;21.6;100;98510;;;;
2022/08/13 10:41:56;;;;;;;8;12.3;;;;;;;21.3;100;98500;;;;
2022/08/13 10:52:56;;;;;;;8;12.3;;;;;;;21.2;100;98490;;;;
2022/08/13 11:03:57;;;;;;;7.5;9.7;;;;;;;21.4;100;98480;;;;
2022/08/13 11:14:56;;;;;;;7.5;9.7;;;;;;;21.4;100;98470;;;;
2022/08/13 11:24:56;;;;;;;7.5;9.7;;;;;;;21.4;100;98470;;;;
2022/08/13 11:35:56;;;;;;;7.5;10.3;;;;;;;21.5;100;98480;;;;
2022/08/13 11:45:56;;;;;;;7.5;10.3;;;;;;;21.7;100;98470;;;;
2022/08/13 11:55:56;;;;;;;7.5;10.3;;;;;;;21.9;100;98480;;;;
2022/08/13 12:06:56;;;;;;;8.1;11.3;;;;;;;22.2;100;98470;;;;
2022/08/13 12:16:57;;;;;;;8.1;11.3;;;;;;;22.3;100;98460;;;;
2022/08/13 12:27:56;;;;;;;8.1;11.3;;;;;;;23.6;100;98460;;;;
2022/08/13 12:38:56;;;;;;;8.5;11.2;;;;;;;25;100;98450;;;;
2022/08/13 12:48:56;;;;;;;8.5;11.2;;;;;;;24.7;100;98450;;;;
2022/08/13 12:59:56;;;;;;;8.5;11.2;;;;;;;24;100;98430;;;;
2022/08/13 13:10:56;;;;;;;6.7;8.5;;;;;;;24.5;100;98420;;;;
2022/08/13 13:21:56;;;;;;;6.7;8.5;;;;;;;24;100;98410;;;;
2022/08/13 13:32:57;;;;;;;7.3;10.7;;;;;;;24.1;100;98400;;;;
2022/08/13 13:43:56;;;;;;;7.3;10.7;;;;;;;22.9;100;98400;;;;
2022/08/13 13:53:56;;;;;;;7.3;10.7;;;;;;;22;100;98420;;;;
2022/08/13 14:04:57;;;;;;;8.5;11.9;;;;;;;21.6;100;98400;;;;
2022/08/13 14:15:59;;;;;;;8.5;11.9;;;;;;;21.1;100;98410;;;;
2022/08/13 14:25:58;;;;;;;8.5;11.9;;;;;;;20.9;100;98400;;;;
2022/08/13 14:36:56;;;;;;;8.6;12.2;;;;;;;21.4;100;98400;;;;
2022/08/13 14:47:56;;;;;;;8.6;12.2;;;;;;;22;100;98400;;;;
2022/08/13 14:57:56;;;;;;;8.6;12.2;;;;;;;21.8;100;98390;;;;
2022/08/13 15:07:56;;;;;;;7.3;10.9;;;;;;;22.3;100;98390;;;;
2022/08/13 15:18:00;;;;;;;7.3;10.9;;;;;;;22.7;100;98380;;;;
2022/08/13 15:29:03;;;;;;;7.3;10.9;;;;;;;22.9;100;98380;;;;
2022/08/13 15:39:56;;;;;;;8.9;12.1;;;;;;;22.8;100;98370;;;;
2022/08/13 15:50:56;;;;;;;8.9;12.1;;;;;;;23;100;98350;;;;
2022/08/13 16:01:56;;;;;;;9.5;13.5;;;;;;;23;100;98330;;;;
2022/08/13 16:11:56;;;;;;;9.5;13.5;;;;;;;23;100;98360;;;;
2022/08/13 16:21:56;;;;;;;9.5;13.5;;;;;;;22;100;98360;;;;
2022/08/13 16:32:57;;;;;;;8.7;12.3;;;;;;;21.3;100;98390;;;;
2022/08/13 16:42:58;;;;;;;8.7;12.3;;;;;;;20.3;100;98360;;;;
2022/08/13 16:52:57;;;;;;;8.7;12.3;;;;;;;20.5;100;98360;;;;
2022/08/13 17:14:56;;;;;;;9.6;12.5;;;;;;;20.5;100;98370;;;;
2022/08/13 17:24:56;;;;;;;9.6;12.5;;;;;;;20.3;100;98360;;;;
2022/08/13 17:35:58;;;;;;;9.7;14.7;;;;;;;20.4;100;98360;;;;
2022/08/13 17:45:56;;;;;;;9.7;14.7;;;;;;;20.4;100;98350;;;;
2022/08/13 17:56:56;;;;;;;9.7;14.7;;;;;;;20.4;100;98360;;;;
2022/08/13 18:06:56;;;;;;;8.7;13.7;;;;;;;20.3;100;98360;;;;
2022/08/13 18:16:56;;;;;;;8.7;13.7;;;;;;;20.2;100;98370;;;;
2022/08/13 18:27:56;;;;;;;8.7;13.7;;;;;;;20.1;100;98380;;;;
2022/08/13 18:37:56;;;;;;;11.8;16.3;;;;;;;20;100;98390;;;;
2022/08/13 18:47:56;;;;;;;11.8;16.3;;;;;;;19.7;100;98400;;;;
2022/08/13 18:58:56;;;;;;;11.8;16.3;;;;;;;19.7;100;98410;;;;
2022/08/13 19:09:57;;;;;;;10.9;14.1;;;;;;;19.4;100;98400;;;;
2022/08/13 19:20:56;;;;;;;10.9;14.1;;;;;;;19.5;100;98400;;;;
2022/08/13 19:31:57;;;;;;;9.3;12.5;;;;;;;19.6;100;98380;;;;
2022/08/13 19:41:57;;;;;;;9.3;12.5;;;;;;;19.3;100;98390;;;;
2022/08/13 19:52:57;;;;;;;9.3;12.5;;;;;;;19.1;100;98380;;;;
2022/08/13 20:02:56;;;;;;;8.9;11.7;;;;;;;19.2;100;98370;;;;
2022/08/13 20:13:56;;;;;;;8.9;11.7;;;;;;;19.5;100;98370;;;;
2022/08/13 20:24:58;;;;;;;8.9;11.7;;;;;;;19.5;100;98350;;;;
2022/08/13 20:35:56;;;;;;;9.6;13.8;;;;;;;19.6;100;98340;;;;
2022/08/13 20:45:56;;;;;;;9.6;13.8;;;;;;;19.3;100;98340;;;;
2022/08/13 20:56:56;;;;;;;9.6;13.8;;;;;;;19.4;100;98340;;;;
2022/08/13 21:07:56;;;;;;;9;11.8;;;;;;;19.5;100;98330;;;;
2022/08/13 21:17:57;;;;;;;9;11.8;;;;;;;19.3;100;98320;;;;
2022/08/13 21:28:56;;;;;;;9;11.8;;;;;;;19.6;100;98300;;;;
2022/08/13 21:39:56;;;;;;;9.6;13.2;;;;;;;19.6;100;98300;;;;
2022/08/13 21:50:56;;;;;;;9.6;13.2;;;;;;;19.4;100;98290;;;;
2022/08/13 22:01:56;;;;;;;9.9;12.9;;;;;;;19.5;100;98280;;;;
2022/08/13 22:12:56;;;;;;;9.9;12.9;;;;;;;19.6;100;98270;;;;
2022/08/13 22:22:56;;;;;;;9.9;12.9;;;;;;;19.6;100;98260;;;;
2022/08/13 22:33:56;;;;;;;9.4;13.6;;;;;;;19.5;100;98260;;;;
2022/08/13 22:44:56;;;;;;;9.4;13.6;;;;;;;19.6;100;98250;;;;
2022/08/13 22:55:56;;;;;;;9.4;13.6;;;;;;;19.6;100;98250;;;;
2022/08/13 23:06:56;;;;;;;9.5;14.6;;;;;;;19.6;100;98240;;;;
2022/08/13 23:17:56;;;;;;;9.5;14.6;;;;;;;19.6;100;98230;;;;
2022/08/13 23:27:56;;;;;;;9.5;14.6;;;;;;;19.4;100;98230;;;;
2022/08/13 23:38:56;;;;;;;11.1;14.5;;;;;;;19.5;100;98220;;;;
2022/08/13 23:48:56;;;;;;;11.1;14.5;;;;;;;19.5;100;98210;;;;
2022/08/13 23:59:56;;;;;;;11.1;14.5;;;;;;;19.4;100;98200;;;;
